PROFILE

 METAR AND TAF INFORMATION
ADDS - METARS form results

(0356 UTC 25 April 2019)
http://aviationweather.gov/metar/data/
 
TAF DNPO 242130Z 2500/2606 VRB02KT 8000 SCT008 TEMPO 2504/2507 5000 BR PROB30 2505/2506 1500 BECMG 2508/2510 23010KT BKN011 

 AIRPORT MAP

 RUNWAY INFORMATION
Runway 03 Runway length 9846 ft Runway width 197 ft
Runway elevation 82 ft Runway displaced threshold 0 ft Runway heading 28
Runway 21 Runway length 9846 ft Runway width 197 ft
Runway elevation 87 ft Runway displaced threshold 0 ft Runway heading 208

 AIRPORT FREQUENCIES
Type APP Name APP Frequency 124.9 MHZ
Type ATIS Name ATIS Frequency 123.8 MHZ
Type TWR Name TWR Frequency 118.9 MHZ

 AIRPORT NEAR NAVIGATION AIDS
Type NDB Name Port Harcourt Frequency 370 KHZ
Type VOR-DME Name Port Harcourt Frequency 113500 KHZ